Time;durP1;ratioP1;P1;durP2;ratioP2;P2;SDS_P1;SDS_P2;PMS_P1;PMS_P2;Temp;Humidity;BMP_temperature;BMP_pressure;BME280_temperature;BME280_humidity;BME280_pressure;Samples;Min_cycle;Max_cycle;Signal;HPM_P1;HPM_P2
2021/09/29 00:00:31;;;;;;;16.92;3.28;;;;;;;;;;5095801;28;20036;-76
2021/09/29 00:02:56;;;;;;;6.80;3.00;;;;;;;;;;5096751;28;20032;-75
2021/09/29 00:05:21;;;;;;;10.93;3.30;;;;;;;;;;5095573;28;20047;-76
2021/09/29 00:07:47;;;;;;;7.47;2.97;;;;;;;;;;5096596;28;20268;-76
2021/09/29 00:10:13;;;;;;;4.97;2.90;;;;;;;;;;5095631;28;20081;-76
2021/09/29 00:12:40;;;;;;;6.05;2.83;;;;;;;;;;5094759;28;20479;-75
2021/09/29 00:15:13;;;;;;;10.73;3.38;;;;;;;;;;5096145;28;20040;-76
2021/09/29 00:17:43;;;;;;;8.82;3.13;;;;;;;;;;5095342;28;20046;-76
2021/09/29 00:20:10;;;;;;;5.15;2.72;;;;;;;;;;5096856;28;20027;-76
2021/09/29 00:22:36;;;;;;;7.05;3.28;;;;;;;;;;5096032;28;20039;-76
2021/09/29 00:25:04;;;;;;;9.40;3.33;;;;;;;;;;5096702;28;20395;-76
2021/09/29 00:27:29;;;;;;;6.43;2.70;;;;;;;;;;5096230;28;20094;-76
2021/09/29 00:29:59;;;;;;;5.65;2.67;;;;;;;;;;5094613;28;20047;-76
2021/09/29 00:32:24;;;;;;;10.23;2.58;;;;;;;;;;5095010;28;20047;-76
2021/09/29 00:34:50;;;;;;;5.75;2.65;;;;;;;;;;5096238;28;20032;-75
2021/09/29 00:37:15;;;;;;;7.25;3.00;;;;;;;;;;5095027;28;20489;-76
2021/09/29 00:39:41;;;;;;;3.80;3.03;;;;;;;;;;5096221;28;20032;-76
2021/09/29 00:42:06;;;;;;;5.22;3.15;;;;;;;;;;5094147;28;20028;-76
2021/09/29 00:44:32;;;;;;;5.28;3.60;;;;;;;;;;5094978;28;20043;-76
2021/09/29 00:46:57;;;;;;;6.93;2.40;;;;;;;;;;5095783;28;20113;-76
2021/09/29 00:49:23;;;;;;;3.95;2.60;;;;;;;;;;5095216;28;20036;-76
2021/09/29 00:51:48;;;;;;;4.90;2.72;;;;;;;;;;5093272;28;20047;-76
2021/09/29 00:54:13;;;;;;;6.90;2.78;;;;;;;;;;5093651;28;20040;-76
2021/09/29 00:56:39;;;;;;;9.60;2.95;;;;;;;;;;5092777;28;20123;-76
2021/09/29 00:59:05;;;;;;;5.30;2.60;;;;;;;;;;5092248;28;20032;-75
2021/09/29 01:01:31;;;;;;;7.65;2.80;;;;;;;;;;5095534;28;20028;-76
2021/09/29 01:04:00;;;;;;;10.55;3.47;;;;;;;;;;5095499;28;20387;-76
2021/09/29 01:06:35;;;;;;;50.30;5.75;;;;;;;;;;5095453;28;20118;-76
2021/09/29 01:09:27;;;;;;;43.60;6.90;;;;;;;;;;5095500;28;20052;-76
2021/09/29 01:12:01;;;;;;;41.60;7.60;;;;;;;;;;5095438;28;20479;-76
2021/09/29 01:15:01;;;;;;;28.77;8.07;;;;;;;;;;5094547;28;20043;-75
2021/09/29 01:17:28;;;;;;;11.25;7.47;;;;;;;;;;5093454;28;20073;-75
2021/09/29 01:20:06;;;;;;;18.17;6.50;;;;;;;;;;5095137;28;20032;-76
2021/09/29 01:22:40;;;;;;;12.82;5.47;;;;;;;;;;5095523;28;20039;-76
2021/09/29 01:25:27;;;;;;;10.32;6.18;;;;;;;;;;5094749;28;20036;-76
2021/09/29 01:27:53;;;;;;;14.90;5.65;;;;;;;;;;5092229;28;20445;-75
2021/09/29 01:30:18;;;;;;;11.80;6.13;;;;;;;;;;5092500;28;20044;-76
2021/09/29 01:32:45;;;;;;;11.70;6.05;;;;;;;;;;5092918;28;20044;-76
2021/09/29 01:35:11;;;;;;;13.32;5.80;;;;;;;;;;5092317;28;20063;-76
2021/09/29 01:37:37;;;;;;;10.77;6.07;;;;;;;;;;5092682;28;20063;-76
2021/09/29 01:40:04;;;;;;;14.57;5.95;;;;;;;;;;5093614;28;20071;-76
2021/09/29 01:42:30;;;;;;;11.65;5.35;;;;;;;;;;5094399;28;20071;-75
2021/09/29 01:44:55;;;;;;;15.65;6.40;;;;;;;;;;5094930;28;20032;-76
2021/09/29 01:47:20;;;;;;;86.15;6.53;;;;;;;;;;5094790;28;20069;-76
2021/09/29 01:49:49;;;;;;;8.35;5.22;;;;;;;;;;5094653;28;20067;-76
2021/09/29 01:52:20;;;;;;;7.05;5.07;;;;;;;;;;5094005;28;20040;-76
2021/09/29 01:54:46;;;;;;;12.43;5.18;;;;;;;;;;5091704;28;20062;-76
2021/09/29 01:57:12;;;;;;;10.13;4.80;;;;;;;;;;5092928;28;20075;-76
2021/09/29 01:59:38;;;;;;;24.75;5.60;;;;;;;;;;5093827;28;20071;-76
2021/09/29 02:02:05;;;;;;;16.30;7.07;;;;;;;;;;5093881;28;20114;-76
2021/09/29 02:04:30;;;;;;;8.82;5.25;;;;;;;;;;5094185;28;20040;-76
2021/09/29 02:06:57;;;;;;;8.43;5.70;;;;;;;;;;5093654;28;20032;-76
2021/09/29 02:09:24;;;;;;;26.05;8.05;;;;;;;;;;5094536;28;20032;-76
2021/09/29 02:11:50;;;;;;;21.08;6.60;;;;;;;;;;5093335;28;20032;-76
2021/09/29 02:14:20;;;;;;;33.47;6.60;;;;;;;;;;5091672;28;20047;-76
2021/09/29 02:16:48;;;;;;;10.48;6.10;;;;;;;;;;5091274;28;20036;-75
2021/09/29 02:19:15;;;;;;;7.60;5.72;;;;;;;;;;5090861;28;20095;-76
2021/09/29 02:21:41;;;;;;;6.95;5.53;;;;;;;;;;5092271;28;20028;-75
2021/09/29 02:24:07;;;;;;;8.75;5.10;;;;;;;;;;5092110;28;20044;-75
2021/09/29 02:26:34;;;;;;;6.00;4.82;;;;;;;;;;5092792;28;20471;-76
2021/09/29 02:28:59;;;;;;;10.50;4.75;;;;;;;;;;5093994;28;20039;-75
2021/09/29 02:31:25;;;;;;;6.95;4.53;;;;;;;;;;5092839;28;20032;-75
2021/09/29 02:33:50;;;;;;;16.13;4.78;;;;;;;;;;5094159;28;20032;-75
2021/09/29 02:36:15;;;;;;;5.47;4.20;;;;;;;;;;5093999;28;20417;-75
2021/09/29 02:38:42;;;;;;;7.15;4.97;;;;;;;;;;5092528;28;20036;-75
2021/09/29 02:41:10;;;;;;;7.80;4.78;;;;;;;;;;5093609;28;20038;-75
2021/09/29 02:43:35;;;;;;;7.97;5.05;;;;;;;;;;5094006;28;20032;-75
2021/09/29 02:46:02;;;;;;;6.97;5.53;;;;;;;;;;5093570;28;20115;-76
2021/09/29 02:48:30;;;;;;;320.30;10.90;;;;;;;;;;5091991;28;20060;-75
2021/09/29 02:50:56;;;;;;;128.38;7.18;;;;;;;;;;5093949;28;20024;-76
2021/09/29 02:53:22;;;;;;;15.63;6.20;;;;;;;;;;5093929;28;20482;-75
2021/09/29 02:55:48;;;;;;;326.67;10.48;;;;;;;;;;5093710;28;20088;-76
2021/09/29 02:58:13;;;;;;;16.10;6.45;;;;;;;;;;5092307;28;20035;-76
2021/09/29 03:00:38;;;;;;;51.03;6.50;;;;;;;;;;5091035;28;20073;-75
2021/09/29 03:03:04;;;;;;;8.65;6.40;;;;;;;;;;5092327;28;20044;-74
2021/09/29 03:05:29;;;;;;;10.35;6.93;;;;;;;;;;5092857;28;20028;-75
2021/09/29 03:07:55;;;;;;;13.48;7.22;;;;;;;;;;5093322;28;20445;-74
2021/09/29 03:10:20;;;;;;;26.67;7.10;;;;;;;;;;5092526;28;20450;-74
2021/09/29 03:12:46;;;;;;;22.75;6.72;;;;;;;;;;5093262;28;20122;-74
2021/09/29 03:15:14;;;;;;;8.38;6.88;;;;;;;;;;5090484;28;20038;-74
2021/09/29 03:17:39;;;;;;;104.80;7.38;;;;;;;;;;5091460;28;20040;-74
2021/09/29 03:20:05;;;;;;;8.02;6.30;;;;;;;;;;5092518;28;20042;-74
2021/09/29 03:22:33;;;;;;;44.28;7.10;;;;;;;;;;5092162;28;20040;-74
2021/09/29 03:24:59;;;;;;;14.85;6.05;;;;;;;;;;5092242;28;20038;-74
2021/09/29 03:27:25;;;;;;;16.20;5.78;;;;;;;;;;5092004;28;20042;-74
2021/09/29 03:29:50;;;;;;;32.90;6.20;;;;;;;;;;5091460;28;20036;-74
2021/09/29 03:32:16;;;;;;;6.15;5.55;;;;;;;;;;5092796;28;20043;-74
2021/09/29 03:34:41;;;;;;;8.73;5.75;;;;;;;;;;5091875;28;20102;-74
2021/09/29 03:37:07;;;;;;;7.30;6.05;;;;;;;;;;5092888;28;20597;-74
2021/09/29 03:39:32;;;;;;;83.18;6.05;;;;;;;;;;5092967;28;20108;-74
2021/09/29 03:41:57;;;;;;;23.48;5.93;;;;;;;;;;5093222;28;20036;-74
2021/09/29 03:44:23;;;;;;;6.88;5.22;;;;;;;;;;5090933;28;20041;-74
2021/09/29 03:46:49;;;;;;;52.38;6.25;;;;;;;;;;5092678;28;20115;-74
2021/09/29 03:49:15;;;;;;;11.35;6.30;;;;;;;;;;5092813;28;20132;-74
2021/09/29 03:51:40;;;;;;;13.07;5.03;;;;;;;;;;5091451;28;20078;-74
2021/09/29 03:54:05;;;;;;;18.77;5.43;;;;;;;;;;5092776;28;20032;-74
2021/09/29 03:56:31;;;;;;;41.90;5.95;;;;;;;;;;5091966;28;20077;-74
2021/09/29 03:58:56;;;;;;;7.93;5.97;;;;;;;;;;5091726;28;20047;-74
2021/09/29 04:01:22;;;;;;;16.70;5.93;;;;;;;;;;5092789;28;20054;-74
2021/09/29 04:03:47;;;;;;;6.55;5.90;;;;;;;;;;5091724;28;20036;-74
2021/09/29 04:06:12;;;;;;;56.45;6.07;;;;;;;;;;5092914;28;20039;-75
2021/09/29 04:08:38;;;;;;;35.53;6.10;;;;;;;;;;5091351;28;20048;-74
2021/09/29 04:11:06;;;;;;;50.08;6.00;;;;;;;;;;5092935;28;20074;-74
2021/09/29 04:13:31;;;;;;;16.45;5.68;;;;;;;;;;5091633;28;20036;-74
2021/09/29 04:15:57;;;;;;;5.50;5.00;;;;;;;;;;5092672;28;20040;-74
2021/09/29 04:18:22;;;;;;;5.78;5.18;;;;;;;;;;5091162;28;20024;-74
2021/09/29 04:20:48;;;;;;;78.78;6.00;;;;;;;;;;5091765;28;20055;-74
2021/09/29 04:23:13;;;;;;;5.55;4.78;;;;;;;;;;5092669;28;20079;-74
2021/09/29 04:25:40;;;;;;;10.00;5.80;;;;;;;;;;5092529;28;20131;-75
2021/09/29 04:28:06;;;;;;;14.48;5.50;;;;;;;;;;5095048;28;20043;-74
2021/09/29 04:30:31;;;;;;;6.68;5.55;;;;;;;;;;5093625;28;20032;-74
2021/09/29 04:32:59;;;;;;;6.45;5.82;;;;;;;;;;5094511;28;20036;-74
2021/09/29 04:35:24;;;;;;;5.82;5.22;;;;;;;;;;5095157;28;20044;-75
2021/09/29 04:37:50;;;;;;;14.15;5.75;;;;;;;;;;5096239;28;20024;-74
2021/09/29 04:40:15;;;;;;;10.52;5.78;;;;;;;;;;5091781;28;20506;-75
2021/09/29 04:42:40;;;;;;;9.73;5.47;;;;;;;;;;5075948;28;20657;-75
2021/09/29 04:45:06;;;;;;;9.45;4.60;;;;;;;;;;5094662;28;20506;-75
2021/09/29 04:47:32;;;;;;;7.75;4.95;;;;;;;;;;5096089;28;20093;-75
2021/09/29 04:49:58;;;;;;;6.38;4.78;;;;;;;;;;5096243;28;20035;-75
2021/09/29 04:52:24;;;;;;;4.70;4.28;;;;;;;;;;5094173;28;20040;-75
2021/09/29 04:54:50;;;;;;;6.80;5.45;;;;;;;;;;5095859;28;20032;-75
2021/09/29 04:57:16;;;;;;;5.25;4.72;;;;;;;;;;5095702;28;20471;-75
2021/09/29 04:59:41;;;;;;;4.90;4.40;;;;;;;;;;5094360;28;20048;-75
2021/09/29 05:02:10;;;;;;;7.35;4.50;;;;;;;;;;5095932;28;20100;-75
2021/09/29 05:04:36;;;;;;;6.88;5.00;;;;;;;;;;5096050;28;20065;-75
2021/09/29 05:07:03;;;;;;;5.72;5.13;;;;;;;;;;5094472;28;20040;-75
2021/09/29 05:09:29;;;;;;;8.93;5.30;;;;;;;;;;5077135;28;20036;-75
2021/09/29 05:12:08;;;;;;;8.43;5.03;;;;;;;;;;5094068;28;20039;-75
2021/09/29 05:14:33;;;;;;;6.13;5.03;;;;;;;;;;5075866;28;20050;-75
2021/09/29 05:16:59;;;;;;;10.82;5.72;;;;;;;;;;5092647;28;20032;-74
2021/09/29 05:19:24;;;;;;;11.32;5.68;;;;;;;;;;5094068;28;20047;-75
2021/09/29 05:21:49;;;;;;;27.25;6.20;;;;;;;;;;5095500;28;20413;-75
2021/09/29 05:24:15;;;;;;;6.72;5.68;;;;;;;;;;5095372;28;20024;-75
2021/09/29 05:26:41;;;;;;;8.00;5.57;;;;;;;;;;5095324;28;20388;-75
2021/09/29 05:29:07;;;;;;;9.55;5.10;;;;;;;;;;5094369;28;20036;-75
2021/09/29 05:31:34;;;;;;;9.80;5.65;;;;;;;;;;5094685;28;20046;-75
2021/09/29 05:33:59;;;;;;;9.73;6.13;;;;;;;;;;5094428;28;20085;-75
2021/09/29 05:36:24;;;;;;;7.53;5.63;;;;;;;;;;5094789;28;20071;-75
2021/09/29 05:38:50;;;;;;;7.43;5.38;;;;;;;;;;5094248;28;20078;-74
2021/09/29 05:41:17;;;;;;;7.93;5.63;;;;;;;;;;5094026;28;20039;-75
2021/09/29 05:43:42;;;;;;;6.55;5.38;;;;;;;;;;5094732;28;20036;-75
2021/09/29 05:46:07;;;;;;;5.97;5.38;;;;;;;;;;5094697;28;20102;-75
2021/09/29 05:48:33;;;;;;;7.63;6.13;;;;;;;;;;5093657;28;20048;-75
2021/09/29 05:50:58;;;;;;;7.55;5.65;;;;;;;;;;5093192;28;20089;-74
2021/09/29 05:53:24;;;;;;;6.30;5.50;;;;;;;;;;5091461;28;20032;-75
2021/09/29 05:55:49;;;;;;;16.38;6.18;;;;;;;;;;5094630;28;20032;-75
2021/09/29 05:58:14;;;;;;;15.63;5.80;;;;;;;;;;5094362;28;20525;-75
2021/09/29 06:00:40;;;;;;;6.97;5.47;;;;;;;;;;5093822;28;20067;-75
2021/09/29 06:03:06;;;;;;;8.73;5.70;;;;;;;;;;5094576;28;20031;-75
2021/09/29 06:05:31;;;;;;;5.80;5.20;;;;;;;;;;5093076;28;20438;-74
2021/09/29 06:07:56;;;;;;;7.00;5.22;;;;;;;;;;5093152;28;20044;-75
2021/09/29 06:10:23;;;;;;;6.40;5.47;;;;;;;;;;5094425;28;20062;-75
2021/09/29 06:12:48;;;;;;;10.02;5.43;;;;;;;;;;5093788;28;20035;-75
2021/09/29 06:15:24;;;;;;;6.65;5.20;;;;;;;;;;5094472;28;20081;-75
2021/09/29 06:17:55;;;;;;;5.95;5.18;;;;;;;;;;5075329;28;20056;-75
2021/09/29 06:20:22;;;;;;;9.70;5.43;;;;;;;;;;5094320;28;20487;-75
2021/09/29 06:22:47;;;;;;;7.90;5.50;;;;;;;;;;5094425;28;20398;-75
2021/09/29 06:25:13;;;;;;;6.75;5.65;;;;;;;;;;5094113;28;20024;-75
2021/09/29 06:27:38;;;;;;;10.95;5.68;;;;;;;;;;5093815;28;20028;-75
2021/09/29 06:30:05;;;;;;;6.65;5.88;;;;;;;;;;5093021;28;20491;-74
2021/09/29 06:32:30;;;;;;;8.82;5.82;;;;;;;;;;5091741;28;20039;-75
2021/09/29 06:34:55;;;;;;;6.78;6.07;;;;;;;;;;5094234;28;20383;-75
2021/09/29 06:37:21;;;;;;;7.75;5.68;;;;;;;;;;5093858;28;20471;-74
2021/09/29 06:39:46;;;;;;;8.73;5.88;;;;;;;;;;5094028;28;20024;-75
2021/09/29 06:42:11;;;;;;;9.15;5.72;;;;;;;;;;5093991;28;20035;-75
2021/09/29 06:44:37;;;;;;;6.90;5.82;;;;;;;;;;5093163;28;20140;-75
2021/09/29 06:47:03;;;;;;;10.20;5.82;;;;;;;;;;5093755;28;20027;-77
2021/09/29 06:49:29;;;;;;;11.68;6.07;;;;;;;;;;5092517;28;20478;-76
2021/09/29 06:51:54;;;;;;;9.90;5.65;;;;;;;;;;5093936;28;20051;-76
2021/09/29 06:54:20;;;;;;;13.40;6.63;;;;;;;;;;5094884;28;20044;-76
2021/09/29 06:56:46;;;;;;;12.63;6.47;;;;;;;;;;5093391;28;20487;-77
2021/09/29 06:59:11;;;;;;;6.78;6.05;;;;;;;;;;5092036;28;20028;-76
2021/09/29 07:01:37;;;;;;;6.88;5.57;;;;;;;;;;5093301;28;20028;-77
2021/09/29 07:04:02;;;;;;;13.40;6.03;;;;;;;;;;5092717;28;20471;-77
2021/09/29 07:06:29;;;;;;;7.70;5.90;;;;;;;;;;5092737;28;20036;-76
2021/09/29 07:08:55;;;;;;;6.53;5.55;;;;;;;;;;5092169;28;20048;-77
2021/09/29 07:11:20;;;;;;;7.63;6.18;;;;;;;;;;5091869;28;20436;-77
2021/09/29 07:13:46;;;;;;;7.65;6.60;;;;;;;;;;5093688;28;20089;-77
2021/09/29 07:16:12;;;;;;;7.60;6.15;;;;;;;;;;5092622;28;20038;-77
2021/09/29 07:18:39;;;;;;;7.07;5.78;;;;;;;;;;5091605;28;20406;-76
2021/09/29 07:21:05;;;;;;;7.90;6.18;;;;;;;;;;5092486;28;20027;-77
2021/09/29 07:23:30;;;;;;;6.93;5.75;;;;;;;;;;5093254;28;20032;-78
2021/09/29 07:25:56;;;;;;;7.43;5.93;;;;;;;;;;5094308;28;20044;-77
2021/09/29 07:28:21;;;;;;;10.80;5.88;;;;;;;;;;5093129;28;20111;-77
2021/09/29 07:30:47;;;;;;;5.93;5.13;;;;;;;;;;5091501;28;20124;-78
2021/09/29 07:33:16;;;;;;;8.05;5.97;;;;;;;;;;5093633;28;20031;-77
2021/09/29 07:35:43;;;;;;;6.75;5.38;;;;;;;;;;5093454;28;20458;-77
2021/09/29 07:38:10;;;;;;;7.25;5.75;;;;;;;;;;5092859;28;20042;-77
2021/09/29 07:40:36;;;;;;;13.77;5.78;;;;;;;;;;5093017;28;20073;-76
2021/09/29 07:43:03;;;;;;;5.97;5.35;;;;;;;;;;5092824;28;20021;-77
2021/09/29 07:45:29;;;;;;;7.72;5.38;;;;;;;;;;5091385;28;20047;-76
2021/09/29 07:47:55;;;;;;;7.00;5.22;;;;;;;;;;5092917;28;20031;-76
2021/09/29 07:50:21;;;;;;;10.55;5.82;;;;;;;;;;5091650;28;20381;-76
2021/09/29 07:52:47;;;;;;;7.28;5.47;;;;;;;;;;5093129;28;20040;-76
2021/09/29 07:55:13;;;;;;;9.10;6.03;;;;;;;;;;5093074;28;20035;-77
2021/09/29 07:57:40;;;;;;;8.98;5.68;;;;;;;;;;5091810;28;20040;-76
2021/09/29 08:00:06;;;;;;;11.80;5.78;;;;;;;;;;5091577;28;20119;-76
2021/09/29 08:02:38;;;;;;;6.78;5.22;;;;;;;;;;5097094;28;20032;-76
2021/09/29 08:05:04;;;;;;;6.55;5.45;;;;;;;;;;5096882;28;20122;-77
2021/09/29 08:07:30;;;;;;;9.52;4.90;;;;;;;;;;5096636;28;20062;-77
2021/09/29 08:09:56;;;;;;;7.28;5.18;;;;;;;;;;5095624;28;20463;-76
2021/09/29 08:12:22;;;;;;;6.90;5.30;;;;;;;;;;5096452;28;20421;-75
2021/09/29 08:14:47;;;;;;;10.20;6.15;;;;;;;;;;5092738;28;20038;-77
2021/09/29 08:17:12;;;;;;;7.57;5.20;;;;;;;;;;5097085;28;20482;-78
2021/09/29 08:19:38;;;;;;;9.98;4.97;;;;;;;;;;5095877;28;20043;-77
2021/09/29 08:22:06;;;;;;;8.07;4.45;;;;;;;;;;5096313;28;20062;-77
2021/09/29 08:24:47;;;;;;;10.43;5.35;;;;;;;;;;5095821;28;20039;-77
2021/09/29 08:30:09;;;;;;;5.28;4.30;;;;;;;;;;5097275;28;20092;-78
2021/09/29 08:35:23;;;;;;;10.30;4.13;;;;;;;;;;5096858;28;20056;-78
2021/09/29 08:37:54;;;;;;;7.65;5.50;;;;;;;;;;5094795;28;20097;-77
2021/09/29 08:40:24;;;;;;;8.90;5.00;;;;;;;;;;5093584;28;20031;-76
2021/09/29 08:45:33;;;;;;;5.68;4.40;;;;;;;;;;5095538;28;20114;-77
2021/09/29 08:48:11;;;;;;;6.68;4.03;;;;;;;;;;5093443;28;20059;-76
2021/09/29 09:17:36;;;;;;;9.63;3.45;;;;;;;;;;5096564;28;20036;-80
2021/09/29 09:20:20;;;;;;;5.25;3.17;;;;;;;;;;5078188;28;20029;-79
2021/09/29 09:22:50;;;;;;;8.65;3.45;;;;;;;;;;5078639;28;20105;-80
2021/09/29 09:25:16;;;;;;;6.72;2.47;;;;;;;;;;5075808;28;20531;-77
2021/09/29 09:27:47;;;;;;;5.63;2.95;;;;;;;;;;5077064;28;20156;-78
2021/09/29 09:30:30;;;;;;;6.35;2.85;;;;;;;;;;5098036;28;20032;-78
2021/09/29 09:32:56;;;;;;;4.57;2.65;;;;;;;;;;5098106;28;20139;-78
2021/09/29 09:35:23;;;;;;;9.43;3.08;;;;;;;;;;5097760;28;20388;-79
2021/09/29 09:37:58;;;;;;;9.07;2.25;;;;;;;;;;5096808;28;20068;-78
2021/09/29 09:40:30;;;;;;;6.13;2.15;;;;;;;;;;5096548;28;20036;-79
2021/09/29 09:42:57;;;;;;;6.05;1.85;;;;;;;;;;5096605;28;20123;-77
2021/09/29 09:45:41;;;;;;;3.50;1.95;;;;;;;;;;5093677;28;20061;-77
2021/09/29 09:48:23;;;;;;;7.47;2.10;;;;;;;;;;5093046;28;20393;-77
2021/09/29 09:50:53;;;;;;;3.05;1.50;;;;;;;;;;5092987;28;20035;-77
2021/09/29 09:53:19;;;;;;;6.22;1.50;;;;;;;;;;5094662;28;20035;-77
2021/09/29 09:55:44;;;;;;;8.27;1.80;;;;;;;;;;5094498;28;20036;-76
2021/09/29 09:58:10;;;;;;;3.95;1.35;;;;;;;;;;5094416;28;20035;-77
2021/09/29 10:00:36;;;;;;;5.38;1.48;;;;;;;;;;5094459;28;20039;-77
2021/09/29 10:03:03;;;;;;;5.15;1.63;;;;;;;;;;5093415;28;20042;-77
2021/09/29 10:05:30;;;;;;;7.60;1.90;;;;;;;;;;5094606;28;20038;-77
2021/09/29 10:07:56;;;;;;;4.75;1.60;;;;;;;;;;5094078;28;20082;-77
2021/09/29 10:10:42;;;;;;;4.13;1.25;;;;;;;;;;5094113;28;20383;-76
2021/09/29 10:27:19;;;;;;;7.40;1.83;;;;;;;;;;5066678;28;20051;-77
2021/09/29 10:29:49;;;;;;;7.53;1.60;;;;;;;;;;5079827;28;20293;-77
2021/09/29 10:32:27;;;;;;;5.38;1.50;;;;;;;;;;5093861;28;20126;-77
2021/09/29 10:43:38;;;;;;;7.50;1.80;;;;;;;;;;5093716;28;20391;-77
2021/09/29 10:46:24;;;;;;;3.25;1.48;;;;;;;;;;5091436;28;20078;-77
2021/09/29 10:49:04;;;;;;;;;;;;;;;;;;5091024;28;20036;-76
2021/09/29 11:30:24;;;;;;;2.38;0.98;;;;;;;;;;5096779;28;20123;-77
2021/09/29 11:35:24;;;;;;;5.18;1.00;;;;;;;;;;5092793;28;20031;-78
2021/09/29 12:08:02;;;;;;;4.55;1.30;;;;;;;;;;5095537;28;20079;-76
2021/09/29 12:10:29;;;;;;;4.13;1.65;;;;;;;;;;5092488;28;20039;-75
2021/09/29 12:12:55;;;;;;;2.20;1.17;;;;;;;;;;5091949;28;20067;-75
2021/09/29 12:15:21;;;;;;;2.80;0.93;;;;;;;;;;5092013;28;20044;-75
2021/09/29 12:17:51;;;;;;;5.85;1.48;;;;;;;;;;5092781;28;20028;-76
2021/09/29 12:20:26;;;;;;;2.92;0.90;;;;;;;;;;5092763;28;20106;-75
2021/09/29 12:22:55;;;;;;;;;;;;;;;;;;5093280;28;20040;-76
2021/09/29 12:25:31;;;;;;;5.07;1.80;;;;;;;;;;5091314;28;19960;-75
2021/09/29 12:28:18;;;;;;;5.15;1.52;;;;;;;;;;5092787;28;20425;-75
2021/09/29 12:30:49;;;;;;;7.03;1.30;;;;;;;;;;5091433;28;20036;-75
2021/09/29 12:36:34;;;;;;;8.48;1.20;;;;;;;;;;5070099;28;20058;-75
2021/09/29 12:39:01;;;;;;;2.95;1.38;;;;;;;;;;5070083;28;20105;-75
2021/09/29 12:41:28;;;;;;;4.60;1.30;;;;;;;;;;5081941;28;20086;-75
2021/09/29 12:44:05;;;;;;;5.65;1.50;;;;;;;;;;5092544;28;20097;-76
2021/09/29 12:46:31;;;;;;;4.70;1.30;;;;;;;;;;5092029;28;20031;-75
2021/09/29 12:48:56;;;;;;;7.00;1.23;;;;;;;;;;5077728;28;20036;-75
2021/09/29 12:51:24;;;;;;;9.98;1.83;;;;;;;;;;5095932;28;20058;-76
2021/09/29 12:56:18;;;;;;;4.07;1.67;;;;;;;;;;5096155;28;20057;-75
2021/09/29 12:58:47;;;;;;;7.25;1.70;;;;;;;;;;5094899;28;20032;-76
2021/09/29 13:01:12;;;;;;;4.78;1.42;;;;;;;;;;5094514;28;20032;-75
2021/09/29 13:03:38;;;;;;;3.65;1.20;;;;;;;;;;5096047;28;20035;-76
2021/09/29 13:06:05;;;;;;;4.75;1.50;;;;;;;;;;5094666;28;20024;-76
2021/09/29 13:08:30;;;;;;;4.38;1.20;;;;;;;;;;5095541;28;20507;-76
2021/09/29 13:10:58;;;;;;;3.00;1.17;;;;;;;;;;5095589;28;20032;-77
2021/09/29 13:13:23;;;;;;;5.70;1.42;;;;;;;;;;5095428;28;20391;-77
2021/09/29 13:15:52;;;;;;;4.43;1.27;;;;;;;;;;5094616;28;20028;-77
2021/09/29 13:18:25;;;;;;;2.65;1.08;;;;;;;;;;5094175;28;20032;-75
2021/09/29 13:20:56;;;;;;;7.22;1.50;;;;;;;;;;5093904;28;20040;-75
2021/09/29 13:36:36;;;;;;;3.63;1.60;;;;;;;;;;5095118;28;20041;-77
2021/09/29 13:39:17;;;;;;;5.63;3.00;;;;;;;;;;5095354;28;20538;-77
2021/09/29 13:41:46;;;;;;;3.78;2.05;;;;;;;;;;5093952;28;20043;-77
2021/09/29 13:44:12;;;;;;;3.17;1.50;;;;;;;;;;5095003;28;20400;-77
2021/09/29 13:46:39;;;;;;;8.90;5.40;;;;;;;;;;5095129;28;20036;-77
2021/09/29 13:49:06;;;;;;;6.90;2.53;;;;;;;;;;5093724;28;20039;-77
2021/09/29 13:51:37;;;;;;;2.97;1.30;;;;;;;;;;5093985;28;20040;-76
2021/09/29 13:54:08;;;;;;;3.30;1.50;;;;;;;;;;5094320;28;20085;-77
2021/09/29 13:56:52;;;;;;;1.58;1.00;;;;;;;;;;5081793;28;20042;-76
2021/09/29 14:28:32;;;;;;;0.80;0.73;;;;;;;;;;5062746;28;20583;-78
2021/09/29 14:29:05;;;;;;;3.97;1.42;;;;;;;;;;5060477;28;20020;-77
2021/09/29 14:33:58;;;;;;;1.60;0.73;;;;;;;;;;5063209;28;20024;-77
2021/09/29 14:36:23;;;;;;;3.60;0.60;;;;;;;;;;5060775;28;20032;-77
2021/09/29 14:38:49;;;;;;;0.73;0.40;;;;;;;;;;5059855;28;20114;-77
2021/09/29 14:41:14;;;;;;;1.85;0.73;;;;;;;;;;5053410;28;20062;-77
2021/09/29 14:43:40;;;;;;;2.95;0.50;;;;;;;;;;5060837;28;20161;-77
2021/09/29 14:46:07;;;;;;;0.75;0.52;;;;;;;;;;5062088;28;20027;-77
2021/09/29 14:48:33;;;;;;;0.82;0.50;;;;;;;;;;5055999;28;20013;-76
2021/09/29 14:50:59;;;;;;;1.63;0.65;;;;;;;;;;5058296;28;20127;-76
2021/09/29 14:53:24;;;;;;;0.40;0.40;;;;;;;;;;5060938;28;21024;-77
2021/09/29 14:55:50;;;;;;;1.00;0.32;;;;;;;;;;5064318;28;20039;-78
2021/09/29 14:58:15;;;;;;;0.68;0.43;;;;;;;;;;5062575;28;20031;-77
2021/09/29 15:00:41;;;;;;;0.35;0.35;;;;;;;;;;5063418;28;20024;-76
2021/09/29 15:03:07;;;;;;;1.05;0.60;;;;;;;;;;5051704;28;20585;-78
2021/09/29 15:05:32;;;;;;;0.75;0.75;;;;;;;;;;5060454;28;20025;-77
2021/09/29 15:07:59;;;;;;;3.00;0.70;;;;;;;;;;5063715;28;20048;-76
2021/09/29 15:10:24;;;;;;;1.17;0.80;;;;;;;;;;5064965;28;20092;-78
2021/09/29 15:12:49;;;;;;;2.95;1.20;;;;;;;;;;5051483;28;20039;-77
2021/09/29 15:15:24;;;;;;;1.10;0.88;;;;;;;;;;5042515;28;20116;-78
2021/09/29 15:17:56;;;;;;;1.58;1.13;;;;;;;;;;5043108;28;20047;-77
2021/09/29 15:57:05;;;;;;;3.88;0.88;;;;;;;;;;5065962;28;20028;-77
2021/09/29 16:02:44;;;;;;;1.60;0.70;;;;;;;;;;5079729;28;20416;-77
2021/09/29 16:08:52;;;;;;;0.88;0.70;;;;;;;;;;5086940;28;20046;-77
2021/09/29 16:16:12;;;;;;;3.28;2.40;;;;;;;;;;5091790;28;20043;-76
2021/09/29 16:21:40;;;;;;;1.77;0.90;;;;;;;;;;5049776;28;20017;-76
2021/09/29 16:34:59;;;;;;;1.55;0.90;;;;;;;;;;5090086;28;20047;-76
2021/09/29 16:37:25;;;;;;;1.67;0.60;;;;;;;;;;5088891;28;20032;-76
2021/09/29 16:39:51;;;;;;;0.65;0.65;;;;;;;;;;5096499;28;20073;-76
2021/09/29 16:42:18;;;;;;;3.63;0.75;;;;;;;;;;5095943;28;20032;-76
2021/09/29 16:44:43;;;;;;;0.70;0.70;;;;;;;;;;5095820;28;20036;-76
2021/09/29 16:47:08;;;;;;;1.42;1.27;;;;;;;;;;5094845;28;20108;-75
2021/09/29 16:49:36;;;;;;;1.55;1.33;;;;;;;;;;5095026;28;20052;-76
2021/09/29 16:52:09;;;;;;;5.53;1.88;;;;;;;;;;5096133;28;20082;-76
2021/09/29 16:54:34;;;;;;;1.20;1.10;;;;;;;;;;5095729;28;20044;-76
2021/09/29 16:57:05;;;;;;;1.17;0.70;;;;;;;;;;5095552;28;20046;-76
2021/09/29 16:59:42;;;;;;;3.60;0.77;;;;;;;;;;5094481;28;20035;-76
2021/09/29 17:02:10;;;;;;;0.77;0.63;;;;;;;;;;5094824;28;20032;-76
2021/09/29 17:04:36;;;;;;;0.50;0.50;;;;;;;;;;5095749;28;20063;-76
2021/09/29 17:07:01;;;;;;;7.63;4.18;;;;;;;;;;5095804;28;20024;-76
2021/09/29 17:09:27;;;;;;;10.25;6.38;;;;;;;;;;5094962;28;20502;-76
2021/09/29 17:11:52;;;;;;;8.95;3.15;;;;;;;;;;5095018;28;20040;-77
2021/09/29 17:14:18;;;;;;;4.25;2.42;;;;;;;;;;5094130;28;20047;-78
2021/09/29 17:16:43;;;;;;;3.03;2.00;;;;;;;;;;5095920;28;20040;-77
2021/09/29 17:19:08;;;;;;;4.32;2.10;;;;;;;;;;5094799;28;20032;-77
2021/09/29 17:21:36;;;;;;;4.68;1.77;;;;;;;;;;5096532;28;20109;-79
2021/09/29 17:24:02;;;;;;;4.60;1.52;;;;;;;;;;5097167;28;20043;-81
2021/09/29 17:26:30;;;;;;;3.53;2.00;;;;;;;;;;5095261;28;20032;-80
2021/09/29 17:28:58;;;;;;;3.08;2.00;;;;;;;;;;5095289;28;20356;-77
2021/09/29 17:34:12;;;;;;;4.53;2.03;;;;;;;;;;5093289;28;20071;-80
2021/09/29 17:37:10;;;;;;;2.72;1.63;;;;;;;;;;5094482;28;20040;-79
2021/09/29 17:39:51;;;;;;;2.50;1.95;;;;;;;;;;5096170;28;20040;-77
2021/09/29 17:53:14;;;;;;;13.82;12.27;;;;;;;;;;5075641;28;20044;-81
2021/09/29 17:55:40;;;;;;;11.73;9.02;;;;;;;;;;5076993;28;20563;-80
2021/09/29 17:58:06;;;;;;;5.35;4.07;;;;;;;;;;5076071;28;20101;-80
2021/09/29 18:00:34;;;;;;;2.97;2.25;;;;;;;;;;5090003;28;20071;-77
2021/09/29 18:03:07;;;;;;;5.45;1.80;;;;;;;;;;5098011;28;20036;-78
2021/09/29 18:08:06;;;;;;;2.50;1.52;;;;;;;;;;5094495;28;20499;-75
2021/09/29 18:10:32;;;;;;;3.03;1.90;;;;;;;;;;5094303;28;20040;-76
2021/09/29 18:12:59;;;;;;;5.78;1.73;;;;;;;;;;5094247;28;20471;-77
2021/09/29 18:15:27;;;;;;;3.58;1.50;;;;;;;;;;5094355;28;20074;-76
2021/09/29 18:17:52;;;;;;;3.00;1.50;;;;;;;;;;5091591;28;20491;-76
2021/09/29 18:20:18;;;;;;;1.90;1.40;;;;;;;;;;5091621;28;20062;-76
2021/09/29 18:22:45;;;;;;;4.60;1.52;;;;;;;;;;5094005;28;20043;-75
2021/09/29 18:25:11;;;;;;;6.15;1.30;;;;;;;;;;5093410;28;20042;-76
2021/09/29 18:27:37;;;;;;;1.42;0.95;;;;;;;;;;5094059;28;20031;-76
2021/09/29 18:30:07;;;;;;;1.92;0.90;;;;;;;;;;5092956;28;20146;-76
2021/09/29 18:32:33;;;;;;;3.70;1.98;;;;;;;;;;5093376;28;20064;-75
2021/09/29 18:34:59;;;;;;;3.95;1.67;;;;;;;;;;5093435;28;20134;-76
2021/09/29 18:37:25;;;;;;;4.00;1.30;;;;;;;;;;5092728;28;20164;-76
2021/09/29 18:39:54;;;;;;;1.63;1.08;;;;;;;;;;5093756;28;20024;-76
2021/09/29 18:42:20;;;;;;;1.65;0.70;;;;;;;;;;5092424;28;20016;-76
2021/09/29 18:44:46;;;;;;;3.60;0.63;;;;;;;;;;5091516;28;20043;-76
2021/09/29 18:47:13;;;;;;;2.80;0.93;;;;;;;;;;5062357;28;20027;-76
2021/09/29 18:49:42;;;;;;;7.95;1.33;;;;;;;;;;5060131;28;20020;-76
2021/09/29 18:52:11;;;;;;;1.67;1.05;;;;;;;;;;5064393;28;20100;-76
2021/09/29 18:54:54;;;;;;;12.93;1.40;;;;;;;;;;5062904;28;20032;-76
2021/09/29 19:08:17;;;;;;;5.68;1.88;;;;;;;;;;5061382;28;20129;-77
2021/09/29 19:10:43;;;;;;;7.07;2.03;;;;;;;;;;5061807;28;20024;-76